Advantage Spring — V7LO4 — position and weather

sailwx.info

Track history (hours):
 
Tides and Currents Weather Stations Pressure Air Temp Water Temp Dewpoint Dewpoint Depression Visibility Wind Speed Wind Dir Waves Ship Positions

Advantage Spring

Last reported at 2017-Nov-24 12:30 UTC. Time now 2017-Nov-24 12:47 UTC.
Position N 37°59' W 122°25'.

Length 274 m; draft 11.2 m.

Type: Tanker. MMSI: 538006308.

Date/timePositionNaut miles runAvg speedWind from/ knotsBaromVisibWave heightAir tempDewpointWater temp
2017-Nov-24 12:30N 37°59' W 122°25'511.0
2017-Nov-24 12:00N 37°54' W 122°26'3 6.9
2017-Nov-24 11:31N 37°50' W 122°27'612.8
2017-Nov-24 11:00N 37°47' W 122°34'612.3
2017-Nov-24 10:30N 37°44' W 122°41'5 9.1
2017-Nov-24 09:57N 37°39' W 122°40'510.6
2017-Nov-24 09:30N 37°35' W 122°40'815.0
2017-Nov-24 09:00N 37°27' W 122°40'7113.2
2017-Nov-24 03:38N 36°17' W 122°25'213.5
2017-Nov-24 03:30N 36°16' W 122°25'713.6
2017-Nov-24 03:00N 36°09' W 122°22'713.4
2017-Nov-24 02:30N 36°03' W 122°19'713.4
2017-Nov-24 02:00N 35°56' W 122°17'713.3
2017-Nov-24 01:30N 35°50' W 122°14'713.4
2017-Nov-24 01:00N 35°44' W 122°12'713.4
2017-Nov-24 00:30N 35°37' W 122°10'713.6
2017-Nov-24 00:00N 35°31' W 122°06'713.8
2017-Nov-23 23:30N 35°25' W 122°03'713.5
2017-Nov-23 23:01N 35°18' W 122°01'713.4
2017-Nov-23 22:30N 35°12' W 121°58'713.4
2017-Nov-23 22:00N 35°06' W 121°55'713.6
2017-Nov-23 21:30N 34°59' W 121°53'713.8
2017-Nov-23 21:00N 34°52' W 121°50'714.1
2017-Nov-23 20:31N 34°46' W 121°48'714.0
2017-Nov-23 20:01N 34°39' W 121°45'714.5
2017-Nov-23 19:30N 34°32' W 121°42'714.4
2017-Nov-23 19:00N 34°26' W 121°39'714.8
2017-Nov-23 18:30N 34°19' W 121°35'714.7
2017-Nov-23 18:00N 34°12' W 121°32'714.6
2017-Nov-23 17:30N 34°05' W 121°29'714.5
2017-Nov-23 17:00N 33°58' W 121°26'714.2
2017-Nov-23 16:30N 33°52' W 121°23'714.2
2017-Nov-23 16:00N 33°46' W 121°18'714.0
2017-Nov-23 15:30N 33°40' W 121°14'713.9
2017-Nov-23 15:00N 33°34' W 121°09'1414.2
2017-Nov-23 14:00N 33°21' W 121°01'814.6
2017-Nov-23 13:29N 33°15' W 120°56'714.5
2017-Nov-23 12:58N 33°08' W 120°52'914.5
2017-Nov-23 12:20N 33°00' W 120°46'1817.5
2017-Nov-23 11:17N 32°44' W 120°35'2 5.4
2017-Nov-23 10:54N 32°43' W 120°34'2414.5
2017-Nov-23 09:16N 32°23' W 120°19'6114.6
2017-Nov-23 05:06N 31°30' W 119°43'115.1
2017-Nov-23 05:01N 31°29' W 119°42'4114.9
2017-Nov-23 02:15N 30°54' W 119°16'  
Track history (hours):
 
Tides and Currents Weather Stations Pressure Air Temp Water Temp Dewpoint Dewpoint Depression Visibility Wind Speed Wind Dir Waves Ship Positions

Advantage Spring

Last reported at 2017-Nov-24 12:30 UTC. Time now 2017-Nov-24 12:47 UTC.
Position N 37°59' W 122°25'.

Length 274 m; draft 11.2 m.

Type: Tanker. MMSI: 538006308.

Date/timePositionNaut miles runAvg speedWind from/ knotsBaromVisibWave heightAir tempDewpointWater temp
2017-Nov-24 12:30N 37°59' W 122°25'511.0
2017-Nov-24 12:00N 37°54' W 122°26'3 6.9
2017-Nov-24 11:31N 37°50' W 122°27'612.8
2017-Nov-24 11:00N 37°47' W 122°34'612.3
2017-Nov-24 10:30N 37°44' W 122°41'5 9.1
2017-Nov-24 09:57N 37°39' W 122°40'510.6
2017-Nov-24 09:30N 37°35' W 122°40'815.0
2017-Nov-24 09:00N 37°27' W 122°40'7113.2
2017-Nov-24 03:38N 36°17' W 122°25'213.5
2017-Nov-24 03:30N 36°16' W 122°25'713.6
2017-Nov-24 03:00N 36°09' W 122°22'713.4
2017-Nov-24 02:30N 36°03' W 122°19'713.4
2017-Nov-24 02:00N 35°56' W 122°17'713.3
2017-Nov-24 01:30N 35°50' W 122°14'713.4
2017-Nov-24 01:00N 35°44' W 122°12'713.4
2017-Nov-24 00:30N 35°37' W 122°10'713.6
2017-Nov-24 00:00N 35°31' W 122°06'713.8
2017-Nov-23 23:30N 35°25' W 122°03'713.5
2017-Nov-23 23:01N 35°18' W 122°01'713.4
2017-Nov-23 22:30N 35°12' W 121°58'713.4
2017-Nov-23 22:00N 35°06' W 121°55'713.6
2017-Nov-23 21:30N 34°59' W 121°53'713.8
2017-Nov-23 21:00N 34°52' W 121°50'714.1
2017-Nov-23 20:31N 34°46' W 121°48'714.0
2017-Nov-23 20:01N 34°39' W 121°45'714.5
2017-Nov-23 19:30N 34°32' W 121°42'714.4
2017-Nov-23 19:00N 34°26' W 121°39'714.8
2017-Nov-23 18:30N 34°19' W 121°35'714.7
2017-Nov-23 18:00N 34°12' W 121°32'714.6
2017-Nov-23 17:30N 34°05' W 121°29'714.5
2017-Nov-23 17:00N 33°58' W 121°26'714.2
2017-Nov-23 16:30N 33°52' W 121°23'714.2
2017-Nov-23 16:00N 33°46' W 121°18'714.0
2017-Nov-23 15:30N 33°40' W 121°14'713.9
2017-Nov-23 15:00N 33°34' W 121°09'1414.2
2017-Nov-23 14:00N 33°21' W 121°01'814.6
2017-Nov-23 13:29N 33°15' W 120°56'714.5
2017-Nov-23 12:58N 33°08' W 120°52'914.5
2017-Nov-23 12:20N 33°00' W 120°46'1817.5
2017-Nov-23 11:17N 32°44' W 120°35'2 5.4
2017-Nov-23 10:54N 32°43' W 120°34'2414.5
2017-Nov-23 09:16N 32°23' W 120°19'6114.6
2017-Nov-23 05:06N 31°30' W 119°43'115.1
2017-Nov-23 05:01N 31°29' W 119°42'4114.9
2017-Nov-23 02:15N 30°54' W 119°16'  

Dump ship's entire track history